Time;durP1;ratioP1;P1;durP2;ratioP2;P2;SDS_P1;SDS_P2;PMS_P1;PMS_P2;Temp;Humidity;BMP_temperature;BMP_pressure;BME280_temperature;BME280_humidity;BME280_pressure;Samples;Min_cycle;Max_cycle;Signal;HPM_P1;HPM_P2
2022/03/25 00:00:56;;;;;;;48.60;28.10;;;2.50;99.90;;;;;;5115373;28;20230;-69
2022/03/25 00:03:23;;;;;;;54.50;28.23;;;2.50;99.90;;;;;;5115298;28;20214;-69
2022/03/25 00:05:51;;;;;;;61.00;29.30;;;2.50;99.90;;;;;;5115220;28;20215;-69
2022/03/25 00:08:18;;;;;;;54.53;27.70;;;2.50;99.90;;;;;;5115100;28;20235;-70
2022/03/25 00:10:45;;;;;;;53.10;26.57;;;2.50;99.90;;;;;;5115408;28;20207;-68
2022/03/25 00:13:13;;;;;;;56.47;28.17;;;2.50;99.90;;;;;;5115283;28;20200;-68
2022/03/25 00:15:41;;;;;;;58.27;27.60;;;2.50;99.90;;;;;;5115347;28;20203;-67
2022/03/25 00:18:08;;;;;;;64.83;27.70;;;2.50;99.90;;;;;;5115139;28;20207;-68
2022/03/25 00:20:36;;;;;;;60.20;28.20;;;2.50;99.90;;;;;;5115257;28;20222;-68
2022/03/25 00:23:03;;;;;;;61.87;27.97;;;2.50;99.90;;;;;;5115215;28;20563;-68
2022/03/25 00:25:30;;;;;;;67.43;28.60;;;2.50;99.90;;;;;;5114927;28;20206;-67
2022/03/25 00:27:57;;;;;;;58.43;27.13;;;2.50;99.90;;;;;;5114968;28;20211;-68
2022/03/25 00:30:25;;;;;;;72.10;28.70;;;2.40;99.90;;;;;;5114718;28;20207;-68
2022/03/25 00:32:54;;;;;;;66.27;26.63;;;2.50;99.90;;;;;;5114780;28;20203;-68
2022/03/25 00:35:21;;;;;;;73.73;30.00;;;2.50;99.90;;;;;;5115074;28;20233;-68
2022/03/25 00:37:48;;;;;;;65.60;29.23;;;2.40;99.90;;;;;;5114764;28;20203;-68
2022/03/25 00:40:15;;;;;;;83.00;31.83;;;2.40;99.90;;;;;;5114795;28;20223;-67
2022/03/25 00:42:42;;;;;;;60.43;26.73;;;2.40;99.90;;;;;;5114328;28;20229;-68
2022/03/25 00:45:10;;;;;;;63.73;28.17;;;2.40;99.90;;;;;;5114606;28;20203;-67
2022/03/25 00:47:38;;;;;;;79.33;29.27;;;2.50;99.90;;;;;;5114420;28;20199;-68
2022/03/25 00:50:07;;;;;;;65.13;28.07;;;2.40;99.90;;;;;;5114855;28;20534;-68
2022/03/25 00:52:34;;;;;;;73.10;27.60;;;2.40;99.90;;;;;;5114441;28;20230;-68
2022/03/25 00:55:02;;;;;;;55.27;24.73;;;2.50;99.90;;;;;;5114523;28;20203;-68
2022/03/25 00:57:29;;;;;;;78.77;28.67;;;2.50;99.90;;;;;;5114594;28;20703;-69
2022/03/25 00:59:57;;;;;;;73.83;28.17;;;2.60;99.90;;;;;;5114447;28;20210;-68
2022/03/25 01:02:24;;;;;;;78.33;30.00;;;2.50;99.90;;;;;;5114017;28;20219;-69
2022/03/25 01:04:51;;;;;;;65.67;28.00;;;2.60;99.90;;;;;;5113428;28;20671;-68
2022/03/25 01:07:20;;;;;;;67.07;27.63;;;2.50;99.90;;;;;;5114007;28;20234;-68
2022/03/25 01:09:47;;;;;;;71.83;27.97;;;2.50;99.90;;;;;;5114508;28;20187;-68
2022/03/25 01:12:14;;;;;;;58.30;25.63;;;2.60;99.90;;;;;;5114527;28;20199;-69
2022/03/25 01:14:42;;;;;;;64.77;26.80;;;2.60;99.90;;;;;;5113939;28;20220;-68
2022/03/25 01:17:09;;;;;;;48.80;23.90;;;2.60;99.90;;;;;;5114216;28;20569;-69
2022/03/25 01:19:36;;;;;;;57.47;25.27;;;2.60;99.90;;;;;;5114073;28;20543;-69
2022/03/25 01:22:05;;;;;;;53.50;22.90;;;2.70;99.90;;;;;;5113822;28;20223;-68
2022/03/25 01:24:33;;;;;;;45.67;21.50;;;2.70;99.90;;;;;;5113960;28;20565;-69
2022/03/25 01:27:01;;;;;;;43.63;20.60;;;2.80;99.90;;;;;;5114273;28;20621;-68
2022/03/25 01:29:29;;;;;;;49.60;22.67;;;2.80;99.90;;;;;;5113711;28;20216;-69
2022/03/25 01:31:56;;;;;;;32.20;16.70;;;2.80;99.90;;;;;;5113620;28;20294;-68
2022/03/25 01:34:24;;;;;;;28.87;14.73;;;2.80;99.90;;;;;;5113712;28;20199;-67
2022/03/25 01:36:51;;;;;;;29.93;15.80;;;2.80;99.90;;;;;;5113607;28;20203;-68
2022/03/25 01:39:18;;;;;;;24.63;13.73;;;2.90;99.90;;;;;;5113290;28;20207;-68
2022/03/25 01:41:48;;;;;;;25.17;13.73;;;2.90;99.90;;;;;;5113468;28;20226;-68
2022/03/25 01:44:15;;;;;;;25.23;13.37;;;3.00;99.90;;;;;;5113555;28;20199;-69
2022/03/25 01:46:42;;;;;;;24.30;13.37;;;3.00;99.90;;;;;;5113657;28;20294;-69
2022/03/25 01:49:09;;;;;;;19.73;11.60;;;3.00;99.90;;;;;;5113561;28;20203;-69
2022/03/25 01:51:39;;;;;;;17.10;10.70;;;3.00;99.90;;;;;;5113190;28;20220;-68
2022/03/25 01:54:18;;;;;;;19.23;11.03;;;3.10;99.90;;;;;;5113522;28;20199;-68
2022/03/25 01:56:50;;;;;;;18.10;11.57;;;3.00;99.90;;;;;;5113628;28;20650;-69
2022/03/25 01:59:18;;;;;;;19.27;12.20;;;3.10;99.90;;;;;;5113353;28;20548;-69
2022/03/25 02:01:45;;;;;;;21.00;12.17;;;3.10;99.90;;;;;;5113660;28;20598;-68
2022/03/25 02:04:13;;;;;;;18.10;11.67;;;3.10;99.90;;;;;;5112953;28;20203;-68
2022/03/25 02:06:40;;;;;;;21.03;12.60;;;3.10;99.90;;;;;;5113329;28;20686;-68
2022/03/25 02:09:07;;;;;;;23.10;13.30;;;3.10;99.90;;;;;;5113021;28;20239;-68
2022/03/25 02:11:35;;;;;;;23.30;13.00;;;3.10;99.90;;;;;;5113124;28;20652;-69
2022/03/25 02:14:04;;;;;;;20.67;13.03;;;3.10;99.90;;;;;;5113184;28;20621;-67
2022/03/25 02:16:35;;;;;;;26.17;14.90;;;3.10;99.90;;;;;;5112612;28;20203;-68
2022/03/25 02:19:03;;;;;;;26.07;15.20;;;3.10;99.90;;;;;;5113078;28;20273;-67
2022/03/25 02:21:32;;;;;;;25.67;14.80;;;3.10;99.90;;;;;;5112595;28;20199;-67
2022/03/25 02:23:59;;;;;;;28.43;15.07;;;3.10;99.90;;;;;;5112710;28;20203;-69
2022/03/25 02:26:27;;;;;;;26.67;14.67;;;3.20;99.90;;;;;;5112763;28;20219;-68
2022/03/25 02:28:55;;;;;;;25.53;14.53;;;3.10;99.90;;;;;;5112967;28;20534;-69
2022/03/25 02:31:22;;;;;;;29.87;15.10;;;3.10;99.90;;;;;;5112357;28;20203;-69
2022/03/25 02:33:49;;;;;;;25.90;15.13;;;3.10;99.90;;;;;;5112603;28;20200;-68
2022/03/25 02:36:16;;;;;;;25.03;15.07;;;3.10;99.90;;;;;;5112373;28;20203;-69
2022/03/25 02:38:45;;;;;;;28.53;15.70;;;3.10;99.90;;;;;;5112819;28;20203;-69
2022/03/25 02:41:12;;;;;;;26.93;15.63;;;3.00;99.90;;;;;;5112446;28;20211;-68
2022/03/25 02:43:39;;;;;;;28.50;15.57;;;3.00;99.90;;;;;;5112698;28;20691;-68
2022/03/25 02:46:06;;;;;;;27.27;15.70;;;3.00;99.90;;;;;;5112192;28;20199;-69
2022/03/25 02:48:34;;;;;;;36.40;18.03;;;3.00;99.90;;;;;;5112702;28;20565;-70
2022/03/25 02:51:01;;;;;;;36.37;18.97;;;3.00;99.90;;;;;;5112745;28;20203;-69
2022/03/25 02:53:28;;;;;;;37.87;19.67;;;3.00;99.90;;;;;;5112523;28;20218;-69
2022/03/25 02:55:57;;;;;;;38.93;20.90;;;3.00;99.90;;;;;;5112639;28;20206;-69
2022/03/25 02:58:24;;;;;;;44.60;21.50;;;3.00;99.90;;;;;;5112360;28;20210;-69
2022/03/25 03:00:52;;;;;;;44.83;23.13;;;3.00;99.90;;;;;;5112332;28;20203;-69
2022/03/25 03:03:19;;;;;;;44.23;22.30;;;3.00;99.90;;;;;;5112017;28;20215;-68
2022/03/25 03:05:46;;;;;;;44.37;24.17;;;3.00;99.90;;;;;;5112559;28;20725;-68
2022/03/25 03:08:14;;;;;;;46.73;23.07;;;3.00;99.90;;;;;;5112047;28;20715;-68
2022/03/25 03:10:41;;;;;;;47.27;24.17;;;3.00;99.90;;;;;;5112567;28;20616;-68
2022/03/25 03:13:10;;;;;;;46.40;24.27;;;3.00;99.90;;;;;;5111997;28;20203;-70
2022/03/25 03:15:38;;;;;;;44.30;23.33;;;3.00;99.90;;;;;;5112498;28;20558;-68
2022/03/25 03:18:06;;;;;;;44.13;24.57;;;3.00;99.90;;;;;;5112087;28;20245;-69
2022/03/25 03:20:33;;;;;;;49.83;25.77;;;3.00;99.90;;;;;;5111978;28;20223;-68
2022/03/25 03:23:00;;;;;;;45.00;23.97;;;3.00;99.90;;;;;;5111846;28;20215;-68
2022/03/25 03:25:27;;;;;;;44.00;24.00;;;3.00;99.90;;;;;;5112123;28;20203;-69
2022/03/25 03:27:55;;;;;;;47.10;24.47;;;3.00;99.90;;;;;;5113421;28;20670;-69
2022/03/25 03:30:24;;;;;;;47.73;24.80;;;3.00;99.90;;;;;;5116251;28;20611;-67
2022/03/25 03:32:55;;;;;;;46.10;25.60;;;3.00;99.90;;;;;;5116058;28;20196;-68
2022/03/25 03:35:23;;;;;;;47.40;26.53;;;3.00;99.90;;;;;;5116218;28;20183;-68
2022/03/25 03:37:50;;;;;;;48.70;26.97;;;3.00;99.90;;;;;;5115921;28;20208;-69
2022/03/25 03:40:17;;;;;;;55.00;28.97;;;3.10;99.90;;;;;;5115725;28;20214;-67
2022/03/25 03:42:45;;;;;;;55.70;29.13;;;3.10;99.90;;;;;;5116064;28;20576;-68
2022/03/25 03:45:12;;;;;;;61.50;32.13;;;3.10;99.90;;;;;;5116037;28;20214;-69
2022/03/25 03:47:43;;;;;;;64.30;31.20;;;3.10;99.90;;;;;;5115774;28;20239;-69
2022/03/25 03:50:12;;;;;;;56.17;31.13;;;3.20;99.90;;;;;;5115707;28;20229;-68
2022/03/25 03:52:39;;;;;;;57.67;31.80;;;3.20;99.90;;;;;;5115917;28;20224;-68
2022/03/25 03:55:08;;;;;;;59.97;31.80;;;3.20;99.90;;;;;;5115419;28;20203;-67
2022/03/25 03:57:36;;;;;;;61.53;32.23;;;3.20;99.90;;;;;;5115867;28;20664;-69
2022/03/25 04:00:05;;;;;;;62.70;33.73;;;3.30;99.90;;;;;;5115486;28;20207;-68
2022/03/25 04:02:32;;;;;;;58.50;33.40;;;3.30;99.90;;;;;;5115733;28;20280;-69
2022/03/25 04:05:01;;;;;;;60.23;32.60;;;3.30;99.90;;;;;;5115690;28;20203;-69
2022/03/25 04:07:28;;;;;;;61.37;33.17;;;3.30;99.90;;;;;;5115304;28;20273;-68
2022/03/25 04:09:55;;;;;;;62.60;34.73;;;3.30;99.90;;;;;;5115478;28;20203;-68
2022/03/25 04:12:22;;;;;;;61.90;33.63;;;3.40;99.90;;;;;;5115413;28;20200;-68
2022/03/25 04:14:49;;;;;;;58.50;34.17;;;3.40;99.90;;;;;;5115587;28;20701;-68
2022/03/25 04:17:19;;;;;;;60.30;34.70;;;3.40;99.90;;;;;;5115083;28;20215;-68
2022/03/25 04:19:46;;;;;;;56.17;32.03;;;3.40;99.90;;;;;;5115252;28;20205;-67
2022/03/25 04:22:15;;;;;;;55.20;31.70;;;3.40;99.90;;;;;;5114868;28;20211;-68
2022/03/25 04:24:42;;;;;;;53.87;31.63;;;3.40;99.90;;;;;;5115067;28;20360;-70
2022/03/25 04:27:09;;;;;;;54.20;31.87;;;3.40;99.90;;;;;;5114879;28;20203;-69
2022/03/25 04:29:36;;;;;;;59.03;32.13;;;3.40;99.90;;;;;;5114898;28;20211;-68
2022/03/25 04:32:04;;;;;;;54.37;32.03;;;3.50;99.90;;;;;;5114795;28;20211;-68
2022/03/25 04:34:31;;;;;;;48.50;29.80;;;3.50;99.90;;;;;;5114884;28;20226;-68
2022/03/25 04:36:58;;;;;;;51.00;30.73;;;3.50;99.90;;;;;;5115151;28;20559;-69
2022/03/25 04:39:26;;;;;;;53.83;31.13;;;3.50;99.90;;;;;;5114703;28;20211;-68
2022/03/25 04:41:53;;;;;;;49.80;31.10;;;3.50;99.90;;;;;;5114607;28;20211;-68
2022/03/25 04:44:21;;;;;;;49.40;29.53;;;3.50;99.90;;;;;;5114796;28;20702;-69
2022/03/25 04:46:48;;;;;;;50.33;28.80;;;3.50;99.90;;;;;;5114541;28;20215;-68
2022/03/25 04:49:15;;;;;;;52.00;28.13;;;3.60;99.90;;;;;;5114608;28;20301;-69
2022/03/25 04:51:42;;;;;;;46.53;28.40;;;3.70;99.90;;;;;;5114554;28;20283;-68
2022/03/25 04:54:09;;;;;;;49.27;28.50;;;3.70;99.90;;;;;;5114299;28;20207;-69
2022/03/25 04:56:38;;;;;;;50.33;27.73;;;3.80;99.90;;;;;;5114631;28;20215;-68
2022/03/25 04:59:05;;;;;;;45.57;27.37;;;3.80;99.90;;;;;;5114503;28;20289;-69
2022/03/25 05:01:32;;;;;;;43.13;26.27;;;3.80;99.90;;;;;;5114396;28;20207;-69
2022/03/25 05:03:59;;;;;;;45.30;26.93;;;3.90;99.90;;;;;;5113933;28;20318;-68
2022/03/25 05:06:26;;;;;;;46.03;26.83;;;3.90;99.90;;;;;;5114305;28;20222;-68
2022/03/25 05:08:54;;;;;;;46.97;26.07;;;3.90;99.90;;;;;;5113850;28;20247;-68
2022/03/25 05:11:21;;;;;;;41.40;24.03;;;3.90;99.90;;;;;;5114023;28;20207;-68
2022/03/25 05:13:50;;;;;;;43.30;24.40;;;3.90;99.90;;;;;;5114059;28;20205;-68
2022/03/25 05:16:17;;;;;;;40.70;24.90;;;3.90;99.90;;;;;;5114100;28;20204;-69
2022/03/25 05:18:44;;;;;;;42.03;24.40;;;3.90;99.90;;;;;;5114244;27;20567;-68
2022/03/25 05:21:11;;;;;;;37.63;23.30;;;3.90;99.90;;;;;;5114206;28;20199;-68
2022/03/25 05:23:38;;;;;;;39.07;23.67;;;4.00;99.90;;;;;;5113791;28;20229;-68
2022/03/25 05:26:05;;;;;;;35.47;22.03;;;4.00;99.90;;;;;;5114034;28;20682;-68
2022/03/25 05:28:32;;;;;;;44.97;23.73;;;4.00;99.90;;;;;;5114202;28;20207;-68
2022/03/25 05:31:01;;;;;;;37.17;22.57;;;4.00;99.90;;;;;;5113759;27;20199;-69
2022/03/25 05:33:28;;;;;;;38.97;22.20;;;4.00;99.90;;;;;;5113988;28;20285;-67
2022/03/25 05:35:55;;;;;;;37.53;22.53;;;4.00;99.90;;;;;;5113510;28;20218;-68
2022/03/25 05:38:22;;;;;;;41.97;24.23;;;4.10;99.90;;;;;;5113584;28;20199;-71
2022/03/25 05:40:49;;;;;;;37.87;23.10;;;4.10;99.90;;;;;;5113353;28;20214;-68
2022/03/25 05:43:16;;;;;;;37.37;22.60;;;4.10;99.90;;;;;;5113647;28;20223;-69
2022/03/25 05:45:44;;;;;;;35.67;20.83;;;4.10;99.90;;;;;;5113193;28;20203;-68
2022/03/25 05:48:12;;;;;;;38.63;22.37;;;4.10;99.90;;;;;;5113640;28;20206;-68
2022/03/25 05:50:39;;;;;;;33.47;20.83;;;4.10;99.90;;;;;;5112757;28;20210;-67
2022/03/25 05:53:07;;;;;;;31.90;20.67;;;4.20;99.90;;;;;;5113510;28;20574;-68
2022/03/25 05:55:34;;;;;;;30.60;18.83;;;4.20;99.90;;;;;;5113277;28;20267;-68
2022/03/25 05:58:01;;;;;;;31.67;18.67;;;4.30;99.90;;;;;;5112944;28;20219;-68
2022/03/25 06:00:28;;;;;;;29.27;17.47;;;4.30;99.90;;;;;;5113058;28;20206;-68
2022/03/25 06:02:55;;;;;;;26.33;16.47;;;4.30;99.90;;;;;;5112725;28;20223;-67
2022/03/25 06:05:24;;;;;;;25.93;16.93;;;4.30;99.90;;;;;;5113163;28;20204;-70
2022/03/25 06:07:51;;;;;;;25.20;15.60;;;4.30;99.90;;;;;;5112925;28;20703;-69
2022/03/25 06:10:18;;;;;;;26.20;15.93;;;4.40;99.90;;;;;;5112850;28;20207;-68
2022/03/25 06:12:45;;;;;;;25.57;15.40;;;4.40;99.90;;;;;;5113033;28;20597;-68
2022/03/25 06:15:13;;;;;;;24.60;14.90;;;4.40;99.90;;;;;;5113187;28;20214;-68
2022/03/25 06:17:47;;;;;;;23.73;13.93;;;4.50;99.90;;;;;;5112901;28;20214;-70
2022/03/25 06:20:17;;;;;;;21.17;12.97;;;4.50;99.90;;;;;;5113212;28;20202;-69
2022/03/25 06:22:47;;;;;;;20.07;13.03;;;4.50;99.90;;;;;;5112806;28;20260;-68
2022/03/25 06:25:14;;;;;;;19.13;13.23;;;4.50;99.90;;;;;;5112862;28;20578;-69
2022/03/25 06:27:49;;;;;;;21.47;13.27;;;4.60;99.90;;;;;;5112888;28;20203;-69
2022/03/25 06:30:16;;;;;;;21.07;13.27;;;4.60;99.90;;;;;;5112799;28;20602;-67
2022/03/25 06:32:44;;;;;;;21.77;12.23;;;4.70;99.90;;;;;;5112741;28;20612;-69
2022/03/25 06:35:12;;;;;;;18.50;11.77;;;4.70;99.90;;;;;;5112459;28;20218;-68
2022/03/25 06:37:39;;;;;;;16.07;10.90;;;4.80;99.90;;;;;;5112106;28;20207;-69
2022/03/25 06:40:09;;;;;;;20.43;11.67;;;4.80;99.90;;;;;;5112366;28;20223;-69
2022/03/25 06:42:37;;;;;;;17.43;11.70;;;4.90;99.90;;;;;;5112480;28;20556;-70
2022/03/25 06:45:04;;;;;;;14.97;9.43;;;4.90;99.90;;;;;;5112291;28;20440;-69
2022/03/25 06:47:32;;;;;;;15.27;9.80;;;5.00;99.90;;;;;;5112598;28;20545;-69
2022/03/25 06:49:59;;;;;;;15.97;10.00;;;5.00;99.90;;;;;;5112634;28;20659;-68
2022/03/25 06:52:27;;;;;;;15.73;9.60;;;5.10;99.90;;;;;;5112322;28;20535;-68
2022/03/25 06:54:55;;;;;;;15.60;9.90;;;5.10;99.90;;;;;;5111972;28;20202;-68
2022/03/25 06:57:24;;;;;;;13.70;9.63;;;5.20;99.90;;;;;;5112401;28;20211;-67
2022/03/25 06:59:52;;;;;;;12.73;9.03;;;5.30;99.90;;;;;;5112370;28;20608;-69
2022/03/25 07:02:19;;;;;;;15.07;9.37;;;5.30;99.90;;;;;;5112492;28;20199;-68
2022/03/25 07:04:47;;;;;;;13.60;9.33;;;5.40;99.90;;;;;;5116462;28;20222;-67
2022/03/25 07:07:18;;;;;;;13.77;9.13;;;5.40;99.90;;;;;;5116413;28;20804;-67
2022/03/25 07:09:46;;;;;;;12.90;8.70;;;5.40;99.90;;;;;;5116260;28;20192;-67
2022/03/25 07:12:16;;;;;;;12.67;8.60;;;5.50;99.90;;;;;;5116571;28;20571;-68
2022/03/25 07:14:45;;;;;;;12.70;8.70;;;5.60;99.90;;;;;;5116656;28;20195;-68
2022/03/25 07:17:12;;;;;;;14.30;7.90;;;5.70;99.90;;;;;;5116783;28;20218;-70
2022/03/25 07:19:39;;;;;;;12.07;8.20;;;5.70;99.90;;;;;;5116090;28;20203;-68
2022/03/25 07:22:06;;;;;;;11.23;8.03;;;5.70;99.90;;;;;;5116462;28;20680;-69
2022/03/25 07:24:33;;;;;;;11.83;8.20;;;5.80;99.90;;;;;;5115681;28;20220;-70
2022/03/25 07:27:01;;;;;;;12.00;7.70;;;5.90;99.90;;;;;;5116329;28;20663;-69
2022/03/25 07:29:28;;;;;;;14.10;7.20;;;5.90;99.90;;;;;;5115877;28;20203;-68
2022/03/25 07:31:56;;;;;;;12.23;7.87;;;6.00;99.90;;;;;;5115973;28;20222;-68
2022/03/25 07:34:23;;;;;;;11.70;7.70;;;6.10;99.90;;;;;;5115987;28;20199;-68
2022/03/25 07:36:50;;;;;;;11.73;7.70;;;6.10;99.90;;;;;;5116434;28;20585;-68
2022/03/25 07:39:18;;;;;;;12.47;8.33;;;6.20;99.90;;;;;;5115855;28;20205;-68
2022/03/25 07:41:45;;;;;;;12.90;7.93;;;6.20;99.90;;;;;;5115841;28;20221;-68
2022/03/25 07:44:12;;;;;;;10.80;7.70;;;6.30;99.90;;;;;;5116066;28;20227;-69
2022/03/25 07:46:39;;;;;;;10.93;7.40;;;6.30;99.90;;;;;;5115652;28;20199;-69
2022/03/25 07:49:09;;;;;;;11.20;7.80;;;6.40;99.90;;;;;;5115665;28;20222;-68
2022/03/25 07:51:36;;;;;;;11.63;7.37;;;6.40;99.90;;;;;;5115493;28;20317;-69
2022/03/25 07:54:03;;;;;;;12.30;7.83;;;6.50;99.90;;;;;;5115909;28;20207;-68
2022/03/25 07:56:30;;;;;;;10.80;8.03;;;6.50;99.90;;;;;;5115717;28;20199;-68
2022/03/25 07:58:59;;;;;;;10.80;8.00;;;6.60;99.90;;;;;;5115860;28;20570;-69
2022/03/25 08:01:26;;;;;;;14.70;8.87;;;6.60;99.90;;;;;;5115755;28;20567;-68
2022/03/25 08:03:53;;;;;;;15.43;9.27;;;6.70;99.90;;;;;;5115287;28;20226;-68
2022/03/25 08:06:22;;;;;;;16.10;10.27;;;6.70;99.90;;;;;;5115376;28;20210;-69
2022/03/25 08:08:49;;;;;;;17.03;10.73;;;6.80;99.90;;;;;;5115961;28;20235;-69
2022/03/25 08:11:18;;;;;;;15.67;10.37;;;6.80;99.90;;;;;;5115505;28;20206;-68
2022/03/25 08:13:45;;;;;;;17.37;10.73;;;6.90;99.90;;;;;;5114924;28;20276;-68
2022/03/25 08:16:14;;;;;;;16.67;10.43;;;6.90;99.90;;;;;;5115342;28;20674;-72
2022/03/25 08:18:41;;;;;;;16.70;11.00;;;6.90;99.90;;;;;;5114998;28;20211;-69
2022/03/25 08:21:08;;;;;;;16.00;10.83;;;6.90;99.90;;;;;;5115085;28;20207;-69
2022/03/25 08:29:05;;;;;;;22.77;14.23;;;7.00;99.90;;;;;;5115079;28;20700;-68
2022/03/25 08:31:34;;;;;;;16.27;11.57;;;7.10;99.90;;;;;;5114922;28;20207;-68
2022/03/25 08:34:02;;;;;;;17.60;11.23;;;7.10;99.90;;;;;;5114820;28;20203;-67
2022/03/25 08:36:29;;;;;;;17.73;12.27;;;7.10;99.90;;;;;;5114622;28;20209;-68
2022/03/25 08:38:58;;;;;;;17.80;11.97;;;7.10;99.90;;;;;;5114821;28;20203;-68
2022/03/25 08:41:25;;;;;;;17.10;11.83;;;7.20;99.90;;;;;;5114807;28;20690;-67
2022/03/25 08:43:52;;;;;;;17.83;11.43;;;7.20;99.90;;;;;;5114526;28;20219;-67
2022/03/25 08:46:21;;;;;;;22.60;13.00;;;7.20;99.90;;;;;;5114769;28;20200;-68
2022/03/25 08:48:48;;;;;;;16.43;11.37;;;7.20;99.90;;;;;;5114815;28;20207;-68
2022/03/25 08:51:15;;;;;;;16.63;11.37;;;7.30;99.90;;;;;;5114614;28;20227;-68
2022/03/25 08:53:43;;;;;;;18.17;11.87;;;7.30;99.90;;;;;;5114715;28;20208;-68
2022/03/25 08:56:12;;;;;;;18.80;12.37;;;7.30;99.90;;;;;;5114444;28;20242;-69
2022/03/25 08:58:40;;;;;;;17.60;11.67;;;7.40;99.90;;;;;;5114251;28;20204;-69
2022/03/25 09:01:07;;;;;;;18.00;11.67;;;7.40;99.90;;;;;;5114632;28;20656;-68
2022/03/25 09:03:35;;;;;;;19.50;11.10;;;7.40;99.90;;;;;;5114371;28;20227;-68
2022/03/25 09:06:02;;;;;;;16.20;10.67;;;7.50;99.90;;;;;;5114303;28;20203;-68
2022/03/25 09:08:29;;;;;;;18.80;11.00;;;7.60;99.90;;;;;;5113948;28;20303;-67
2022/03/25 09:10:57;;;;;;;17.13;11.07;;;7.60;99.90;;;;;;5114283;28;20300;-68
2022/03/25 09:13:25;;;;;;;15.63;10.30;;;7.60;99.90;;;;;;5114290;28;20557;-69
2022/03/25 09:15:52;;;;;;;15.67;10.50;;;7.70;99.90;;;;;;5113898;28;20195;-69
2022/03/25 09:18:20;;;;;;;17.93;10.90;;;7.70;99.90;;;;;;5114093;28;20557;-68
2022/03/25 09:20:47;;;;;;;15.53;10.77;;;7.70;99.90;;;;;;5114322;28;20537;-69
2022/03/25 09:23:14;;;;;;;14.47;10.10;;;7.80;99.90;;;;;;5114004;28;20674;-68
2022/03/25 09:25:42;;;;;;;15.00;9.77;;;7.80;99.90;;;;;;5113017;28;20224;-69
2022/03/25 09:28:09;;;;;;;16.73;11.23;;;7.80;99.90;;;;;;5113843;28;20203;-68
2022/03/25 09:30:39;;;;;;;16.80;10.63;;;7.80;99.90;;;;;;5113820;28;20207;-67
2022/03/25 09:33:07;;;;;;;15.90;10.50;;;7.80;99.90;;;;;;5113615;28;20211;-69
2022/03/25 09:35:35;;;;;;;19.43;11.13;;;7.90;99.90;;;;;;5113833;28;20676;-68
2022/03/25 09:38:02;;;;;;;16.17;10.07;;;7.90;99.90;;;;;;5113760;28;20562;-68
2022/03/25 09:40:29;;;;;;;16.27;10.67;;;7.90;99.90;;;;;;5113564;28;20207;-70
2022/03/25 09:42:58;;;;;;;16.10;10.37;;;7.90;99.90;;;;;;5113472;28;20211;-68
2022/03/25 09:45:26;;;;;;;15.87;9.30;;;8.00;99.90;;;;;;5113576;28;20223;-69
2022/03/25 09:47:55;;;;;;;15.37;9.53;;;8.00;99.90;;;;;;5113273;28;20214;-69
2022/03/25 09:50:24;;;;;;;14.37;9.63;;;8.00;99.90;;;;;;5113111;28;20230;-68
2022/03/25 09:52:53;;;;;;;14.60;9.50;;;8.10;99.90;;;;;;5113676;28;20655;-69
2022/03/25 09:55:20;;;;;;;15.57;9.80;;;8.10;99.90;;;;;;5113020;27;20206;-70
2022/03/25 09:57:47;;;;;;;12.30;8.63;;;8.20;99.90;;;;;;5113581;28;20543;-67
2022/03/25 10:00:17;;;;;;;13.00;8.90;;;8.20;99.90;;;;;;5113118;28;20364;-68
2022/03/25 10:02:45;;;;;;;13.33;8.70;;;8.30;99.90;;;;;;5113381;28;20568;-71
2022/03/25 10:05:18;;;;;;;11.57;8.50;;;8.30;99.90;;;;;;5113139;28;20559;-69
2022/03/25 10:07:47;;;;;;;8.43;6.53;;;8.40;99.90;;;;;;5113012;28;20695;-69
2022/03/25 10:10:17;;;;;;;8.13;5.40;;;8.40;99.90;;;;;;5112874;28;20248;-69
2022/03/25 10:12:46;;;;;;;8.83;6.00;;;8.50;99.90;;;;;;5113010;28;20199;-69
2022/03/25 10:15:17;;;;;;;6.87;5.47;;;8.50;99.90;;;;;;5113051;28;20769;-69
2022/03/25 10:17:53;;;;;;;7.80;5.90;;;8.60;99.90;;;;;;5113156;28;20203;-68
2022/03/25 10:20:24;;;;;;;8.17;5.60;;;8.60;99.90;;;;;;5112684;28;20217;-68
2022/03/25 10:23:00;;;;;;;8.47;5.63;;;8.60;99.90;;;;;;5113063;28;20668;-68
2022/03/25 10:25:41;;;;;;;10.20;5.77;;;8.70;99.90;;;;;;5112899;28;20227;-70
2022/03/25 10:28:25;;;;;;;9.43;5.90;;;8.70;99.90;;;;;;5112916;28;20198;-69
2022/03/25 10:30:53;;;;;;;9.00;5.43;;;8.70;99.90;;;;;;5113075;28;20654;-68
2022/03/25 10:33:34;;;;;;;8.47;5.90;;;8.80;99.90;;;;;;5112539;28;20203;-69
2022/03/25 10:36:07;;;;;;;7.53;5.87;;;8.80;99.90;;;;;;5112569;28;20184;-68
2022/03/25 10:38:46;;;;;;;7.53;5.40;;;8.90;99.90;;;;;;5112862;28;20191;-69
2022/03/25 10:41:15;;;;;;;7.60;5.60;;;8.90;99.90;;;;;;5112769;28;20206;-67
2022/03/25 10:43:54;;;;;;;8.83;5.80;;;8.90;99.90;;;;;;5112465;28;20203;-68
2022/03/25 10:46:33;;;;;;;9.73;6.17;;;9.00;99.90;;;;;;5112172;28;20227;-69
2022/03/25 10:49:01;;;;;;;8.37;5.67;;;9.00;99.90;;;;;;5112472;28;20213;-69
2022/03/25 10:51:30;;;;;;;8.27;5.90;;;9.00;99.90;;;;;;5112416;28;20254;-69
2022/03/25 10:53:58;;;;;;;9.20;6.10;;;9.10;99.90;;;;;;5112263;28;20215;-68
2022/03/25 10:56:26;;;;;;;8.13;5.77;;;9.10;99.90;;;;;;5112023;28;20317;-69
2022/03/25 10:58:55;;;;;;;11.67;5.73;;;9.20;99.90;;;;;;5112308;28;20237;-69
2022/03/25 11:01:23;;;;;;;7.90;6.00;;;9.30;99.90;;;;;;5112049;28;20199;-68
2022/03/25 11:03:52;;;;;;;8.57;5.93;;;9.30;99.50;;;;;;5112312;28;20199;-69
2022/03/25 11:06:20;;;;;;;8.67;6.10;;;9.30;98.90;;;;;;5112602;28;20689;-71
2022/03/25 11:08:48;;;;;;;10.83;6.37;;;9.30;99.00;;;;;;5112117;28;20675;-68
2022/03/25 11:11:19;;;;;;;8.10;5.80;;;9.30;99.40;;;;;;5112406;28;20563;-70
2022/03/25 11:13:48;;;;;;;10.33;6.37;;;9.40;99.80;;;;;;5112146;28;20200;-70
2022/03/25 11:16:17;;;;;;;12.70;6.80;;;9.40;99.90;;;;;;5111882;28;20487;-69
2022/03/25 11:18:45;;;;;;;10.63;6.20;;;9.50;99.90;;;;;;5112273;28;20215;-69
2022/03/25 11:21:13;;;;;;;10.80;6.30;;;9.50;99.90;;;;;;5112047;28;20244;-68
2022/03/25 11:23:46;;;;;;;12.10;6.83;;;9.50;99.60;;;;;;5112324;28;20203;-68
2022/03/25 11:26:18;;;;;;;9.47;6.60;;;9.60;99.60;;;;;;5111879;28;20211;-68
2022/03/25 11:28:46;;;;;;;9.00;6.20;;;9.60;99.00;;;;;;5112053;28;20183;-66
2022/03/25 11:31:13;;;;;;;9.40;6.80;;;9.60;99.20;;;;;;5111878;28;20431;-66
2022/03/25 11:34:11;;;;;;;9.17;6.23;;;9.60;99.00;;;;;;5112243;28;20203;-66
2022/03/25 11:36:41;;;;;;;10.50;6.77;;;9.70;99.60;;;;;;5048939;28;20309;-66
2022/03/25 11:39:19;;;;;;;13.93;8.37;;;9.80;99.20;;;;;;5048696;28;20685;-66
2022/03/25 11:41:47;;;;;;;12.80;8.87;;;9.80;97.80;;;;;;5048915;28;20190;-65
2022/03/25 11:44:25;;;;;;;15.20;8.17;;;9.80;98.20;;;;;;5048783;28;20245;-66
2022/03/25 11:47:14;;;;;;;17.10;9.33;;;9.80;97.40;;;;;;5048813;28;20190;-66
2022/03/25 11:49:41;;;;;;;17.70;10.17;;;9.80;97.60;;;;;;5051239;28;20202;-65
2022/03/25 11:52:27;;;;;;;25.47;12.13;;;9.80;97.20;;;;;;5052557;28;20213;-66
2022/03/25 11:54:58;;;;;;;24.43;12.57;;;9.90;97.10;;;;;;5052679;28;20567;-65
2022/03/25 11:57:28;;;;;;;18.43;11.90;;;9.90;97.30;;;;;;5052658;28;20296;-65
2022/03/25 11:59:57;;;;;;;19.03;11.43;;;10.00;96.80;;;;;;5052347;28;20189;-67
2022/03/25 12:02:35;;;;;;;21.20;12.53;;;10.00;96.40;;;;;;5052450;28;20216;-66
2022/03/25 12:05:03;;;;;;;23.63;14.87;;;9.90;96.00;;;;;;5052239;28;20267;-66
2022/03/25 12:07:31;;;;;;;26.73;14.77;;;9.90;96.00;;;;;;5052178;28;20252;-67
2022/03/25 12:09:59;;;;;;;19.80;11.20;;;9.90;96.00;;;;;;5062265;28;20219;-66
2022/03/25 12:12:57;;;;;;;20.10;11.97;;;10.00;96.50;;;;;;5115932;28;20602;-67
2022/03/25 12:15:48;;;;;;;23.00;12.00;;;10.00;95.80;;;;;;5115581;28;20184;-65
2022/03/25 12:18:42;;;;;;;19.77;11.57;;;10.00;95.70;;;;;;5115218;28;20248;-66
2022/03/25 12:21:38;;;;;;;23.63;13.93;;;10.00;95.90;;;;;;5115095;28;20664;-66
2022/03/25 12:24:12;;;;;;;25.87;13.60;;;10.00;94.80;;;;;;5114708;28;20207;-65
2022/03/25 12:26:41;;;;;;;25.07;13.97;;;10.00;94.80;;;;;;5113703;28;20318;-65
2022/03/25 12:29:16;;;;;;;23.23;13.90;;;10.00;94.90;;;;;;5114853;28;20203;-66
2022/03/25 12:31:55;;;;;;;27.70;15.57;;;10.10;94.80;;;;;;5115026;28;20226;-65
2022/03/25 12:34:31;;;;;;;28.97;15.63;;;10.10;94.50;;;;;;5114900;28;20245;-66
2022/03/25 12:37:04;;;;;;;31.00;14.30;;;10.10;94.60;;;;;;5114932;28;20195;-66
2022/03/25 12:39:33;;;;;;;27.20;13.10;;;10.10;94.50;;;;;;5114930;28;20241;-65
2022/03/25 12:42:01;;;;;;;27.93;14.20;;;10.20;94.80;;;;;;5113453;28;20211;-65
2022/03/25 12:44:32;;;;;;;26.37;12.47;;;10.20;94.50;;;;;;5096107;28;20215;-66
2022/03/25 12:47:03;;;;;;;22.37;12.80;;;10.20;94.30;;;;;;5113316;28;20219;-66
2022/03/25 12:49:32;;;;;;;26.23;12.93;;;10.20;93.90;;;;;;5114603;28;20191;-65
2022/03/25 12:52:02;;;;;;;33.93;15.70;;;10.20;93.80;;;;;;5114334;28;20210;-66
2022/03/25 12:54:31;;;;;;;39.13;18.47;;;10.20;93.50;;;;;;5113411;28;20218;-65